M I D A S
Marine Information and Data Acquisition System
Tripno 2044 of the Zeeleeuw from 2011-02-21 07:16:07 to 2011-02-21 17:23:27
Back to CruiseResearch ActivitiesStationsMapUnderway DataData graphs

EquipmentUnitsComment
TimeDGPSUTC
LatitudeDGPSDM.mWGS84
LongitudeDGPSDM.mWGS84
HeadingGyrodeg 
SOGDGPSknotsSpeed over ground
COGDGPSdegCourse over ground
DepthEcho soundermeters200 kHz
Missing or incorrect values are displayed as -999
Navigation data collected by the RV Zeeleeuw from 2011-02-21 07:03:20 to 2011-02-21 18:21:32
                                                                                    Next 1000 lines
Time Latitude Longitude Heading SOG COG Depth
2011-02-21 07:03:30 51°13.663 2°55.96 124.8 0.1 131 -999
2011-02-21 07:03:35 51°13.663 2°55.959 124.6 -999 286 -999
2011-02-21 07:03:40 51°13.663 2°55.959 124.4 0.1 267 -999
2011-02-21 07:03:45 51°13.664 2°55.959 124.2 0.1 291 -999
2011-02-21 07:03:50 51°13.663 2°55.959 124.2 0.1 176 -999
2011-02-21 07:03:55 51°13.663 2°55.959 124.1 0.1 274 -999
2011-02-21 07:03:59 51°13.663 2°55.959 124.1 0.1 289 -999
2011-02-21 07:04:05 51°13.663 2°55.959 124.1 0.1 272 -999
2011-02-21 07:04:10 51°13.663 2°55.959 124.1 -999 256 -999
2011-02-21 07:04:15 51°13.663 2°55.959 124.2 0.1 155 -999
2011-02-21 07:04:20 51°13.663 2°55.959 124.2 -999 40 -999
2011-02-21 07:04:25 51°13.663 2°55.959 124.2 -999 318 -999
2011-02-21 07:04:30 51°13.663 2°55.959 124.3 0.1 5 -999
2011-02-21 07:04:35 51°13.663 2°55.959 124.3 -999 207 -999
2011-02-21 07:04:40 51°13.663 2°55.959 124.3 0.1 38 -999
2011-02-21 07:04:45 51°13.663 2°55.959 124.3 0.1 13 -999
2011-02-21 07:04:50 51°13.663 2°55.959 124.3 -999 7 -999
2011-02-21 07:04:55 51°13.663 2°55.959 124.3 -999 59 -999
2011-02-21 07:05:00 51°13.662 2°55.959 124.3 -999 138 -999
2011-02-21 07:05:05 51°13.662 2°55.959 124.3 -999 12 -999
2011-02-21 07:05:10 51°13.663 2°55.959 124.3 -999 319 -999
2011-02-21 07:05:15 51°13.662 2°55.959 124.3 -999 2 -999
2011-02-21 07:05:20 51°13.662 2°55.959 124.3 0.1 52 -999
2011-02-21 07:05:25 51°13.662 2°55.959 124.4 0.1 80 -999
2011-02-21 07:05:30 51°13.662 2°55.959 124.4 0.1 73 -999
2011-02-21 07:05:35 51°13.663 2°55.959 124.5 0.1 33 -999
2011-02-21 07:05:40 51°13.662 2°55.959 124.6 0.1 25 -999
2011-02-21 07:05:45 51°13.662 2°55.959 124.6 0.1 20 -999
2011-02-21 07:05:50 51°13.663 2°55.959 124.6 0.1 352 -999
2011-02-21 07:05:54 51°13.663 2°55.959 124.6 0.1 32 -999
2011-02-21 07:06:00 51°13.662 2°55.959 124.8 0.1 73 -999
2011-02-21 07:06:05 51°13.662 2°55.959 124.8 0.1 140 -999
2011-02-21 07:06:10 51°13.662 2°55.959 124.8 0.1 102 -999
2011-02-21 07:06:14 51°13.662 2°55.959 124.9 0.1 320 -999
2011-02-21 07:06:19 51°13.662 2°55.959 124.9 0.1 101 -999
2011-02-21 07:06:25 51°13.662 2°55.959 124.9 0.2 73 -999
2011-02-21 07:06:30 51°13.662 2°55.959 125.2 0.1 94 -999
2011-02-21 07:06:34 51°13.662 2°55.959 125.5 0.1 346 -999
2011-02-21 07:06:40 51°13.662 2°55.959 125.7 -999 102 -999
2011-02-21 07:06:45 51°13.662 2°55.959 125.9 -999 161 -999
2011-02-21 07:06:50 51°13.662 2°55.959 126.2 0.1 260 6.8
2011-02-21 07:06:54 51°13.662 2°55.959 126.4 0.1 287 -999
2011-02-21 07:07:00 51°13.662 2°55.96 126.7 0.1 149 6.8
2011-02-21 07:07:05 51°13.662 2°55.96 126.9 0.1 145 -999
2011-02-21 07:07:10 51°13.662 2°55.96 127.1 0.1 324 7
2011-02-21 07:07:15 51°13.662 2°55.96 127.2 0.1 335 -999
2011-02-21 07:07:20 51°13.662 2°55.96 127.4 0.2 323 -999
2011-02-21 07:07:25 51°13.662 2°55.96 127.6 -999 246 7
2011-02-21 07:07:30 51°13.662 2°55.96 127.8 0.1 288 -999
2011-02-21 07:07:35 51°13.662 2°55.96 127.8 0.1 245 -999
2011-02-21 07:07:40 51°13.662 2°55.96 127.9 0.1 198 -999
2011-02-21 07:07:45 51°13.662 2°55.961 127.9 0.1 85 -999
2011-02-21 07:07:50 51°13.662 2°55.961 127.9 0.1 76 -999
2011-02-21 07:07:55 51°13.662 2°55.961 128 -999 103 -999
2011-02-21 07:08:00 51°13.662 2°55.961 128 -999 160 -999
2011-02-21 07:08:05 51°13.662 2°55.961 128 -999 102 -999
2011-02-21 07:08:10 51°13.662 2°55.96 128.1 0.1 2 -999
2011-02-21 07:08:15 51°13.662 2°55.96 128.1 0.1 302 -999
2011-02-21 07:08:21 51°13.662 2°55.96 128 -999 281 -999
2011-02-21 07:08:25 51°13.662 2°55.96 127.8 -999 193 -999
2011-02-21 07:08:30 51°13.662 2°55.96 127.7 -999 71 -999
2011-02-21 07:08:35 51°13.662 2°55.96 127.4 -999 285 -999
2011-02-21 07:08:41 51°13.662 2°55.96 127.2 0.1 265 -999
2011-02-21 07:08:46 51°13.662 2°55.96 127.1 -999 61 -999
2011-02-21 07:08:51 51°13.662 2°55.96 127 0.1 339 6.8
2011-02-21 07:08:55 51°13.662 2°55.96 126.9 -999 268 -999
2011-02-21 07:09:00 51°13.663 2°55.96 126.7 0.1 337 -999
2011-02-21 07:09:06 51°13.662 2°55.96 126.6 -999 345 -999
2011-02-21 07:09:11 51°13.662 2°55.961 126.6 0.1 114 -999
2011-02-21 07:09:15 51°13.662 2°55.961 126.5 0.1 108 -999
2011-02-21 07:09:20 51°13.662 2°55.961 126.5 0.1 157 -999
2011-02-21 07:09:26 51°13.662 2°55.961 126.5 0.1 188 -999
2011-02-21 07:09:31 51°13.662 2°55.961 126.5 0.1 127 -999
2011-02-21 07:09:35 51°13.662 2°55.961 126.5 -999 141 -999
2011-02-21 07:09:40 51°13.663 2°55.96 126.5 -999 320 -999
2011-02-21 07:09:45 51°13.662 2°55.96 126.5 0.1 232 -999
2011-02-21 07:09:51 51°13.662 2°55.961 126.5 0.1 156 -999
2011-02-21 07:09:55 51°13.662 2°55.96 126.5 0.2 231 -999
2011-02-21 07:10:00 51°13.662 2°55.96 126.6 0.1 345 -999
2011-02-21 07:10:05 51°13.662 2°55.96 126.7 -999 321 -999
2011-02-21 07:10:10 51°13.662 2°55.96 126.8 -999 285 -999
2011-02-21 07:10:15 51°13.662 2°55.96 127 0.1 133 -999
2011-02-21 07:10:19 51°13.662 2°55.961 127 0.2 144 -999
2011-02-21 07:10:25 51°13.662 2°55.96 127 0.1 141 -999
2011-02-21 07:10:30 51°13.661 2°55.96 126.9 0.2 181 -999
2011-02-21 07:10:35 51°13.662 2°55.96 126.9 0.2 203 -999
2011-02-21 07:10:41 51°13.662 2°55.961 127.2 0.1 40 -999
2011-02-21 07:10:46 51°13.662 2°55.961 127.9 0.1 52 6.9
2011-02-21 07:10:51 51°13.662 2°55.961 128.2 0.1 121 -999
2011-02-21 07:10:55 51°13.662 2°55.961 128.1 0.1 117 -999
2011-02-21 07:11:00 51°13.662 2°55.96 128.1 -999 113 -999
2011-02-21 07:11:06 51°13.662 2°55.961 128.5 0.1 146 -999
2011-02-21 07:11:10 51°13.662 2°55.961 128.8 0.1 69 -999
2011-02-21 07:11:15 51°13.662 2°55.96 128.9 0.1 326 -999
2011-02-21 07:11:20 51°13.662 2°55.96 129 -999 201 -999
2011-02-21 07:11:26 51°13.662 2°55.96 129 0.1 157 -999
2011-02-21 07:11:31 51°13.662 2°55.96 129 -999 276 -999
2011-02-21 07:11:35 51°13.662 2°55.96 129 0.1 282 -999
2011-02-21 07:11:40 51°13.662 2°55.96 129 0.1 266 -999
2011-02-21 07:11:45 51°13.662 2°55.96 129 0.1 259 -999
2011-02-21 07:11:51 51°13.662 2°55.961 129 0.1 119 -999
2011-02-21 07:11:55 51°13.662 2°55.961 129 0.1 107 -999
2011-02-21 07:12:00 51°13.662 2°55.961 129 0.2 180 -999
2011-02-21 07:12:05 51°13.662 2°55.96 129 -999 353 -999
2011-02-21 07:12:11 51°13.662 2°55.96 129 0.1 346 -999
2011-02-21 07:12:15 51°13.661 2°55.96 129 -999 315 -999
2011-02-21 07:12:21 51°13.661 2°55.96 129 -999 97 -999
2011-02-21 07:12:25 51°13.661 2°55.96 129 0.1 138 6.7
2011-02-21 07:12:30 51°13.661 2°55.96 129 -999 71 -999
2011-02-21 07:12:35 51°13.661 2°55.96 129 0.2 15 -999
2011-02-21 07:12:41 51°13.661 2°55.96 129 0.2 3 -999
2011-02-21 07:12:45 51°13.661 2°55.96 129 0.1 198 -999
2011-02-21 07:12:50 51°13.661 2°55.96 129 0.1 202 6.7
2011-02-21 07:12:55 51°13.661 2°55.96 129 0.1 190 5.4
2011-02-21 07:13:00 51°13.662 2°55.96 129 0.1 161 7
2011-02-21 07:13:05 51°13.662 2°55.96 129 -999 151 7
2011-02-21 07:13:10 51°13.662 2°55.96 129 0.1 284 7
2011-02-21 07:13:15 51°13.662 2°55.96 129 0.1 223 7
2011-02-21 07:13:19 51°13.662 2°55.96 129 0.2 225 7
2011-02-21 07:13:24 51°13.662 2°55.959 129 0.1 344 7
2011-02-21 07:13:29 51°13.662 2°55.959 129 0.1 322 7
2011-02-21 07:13:33 51°13.662 2°55.959 129 0.1 222 7
2011-02-21 07:13:38 51°13.662 2°55.959 129 0.1 271 7
2011-02-21 07:13:43 51°13.663 2°55.959 129 0.1 333 7
2011-02-21 07:13:47 51°13.663 2°55.959 129 0.1 1 7.2
2011-02-21 07:13:53 51°13.663 2°55.96 129 0.1 50 6.9
2011-02-21 07:13:58 51°13.663 2°55.96 129 0.2 22 7
2011-02-21 07:14:03 51°13.663 2°55.959 128.9 0.1 353 7
2011-02-21 07:14:07 51°13.663 2°55.959 128.9 0.1 224 6.9
2011-02-21 07:14:12 51°13.662 2°55.96 128.9 -999 107 7
2011-02-21 07:14:17 51°13.662 2°55.96 128.9 -999 148 7
2011-02-21 07:14:22 51°13.662 2°55.959 128.9 0.1 206 7
2011-02-21 07:14:27 51°13.662 2°55.96 128.9 0.1 169 6.9
2011-02-21 07:14:32 51°13.662 2°55.96 128.9 0.1 109 7
2011-02-21 07:14:37 51°13.662 2°55.96 128.9 -999 330 6.8
2011-02-21 07:14:42 51°13.662 2°55.959 128.9 0.1 274 6.9
2011-02-21 07:14:47 51°13.662 2°55.959 128.9 0.1 246 6.9
2011-02-21 07:14:52 51°13.662 2°55.959 128.9 0.1 216 6.8
2011-02-21 07:14:57 51°13.661 2°55.959 128.9 0.1 219 6.8
2011-02-21 07:15:02 51°13.661 2°55.96 128.9 0.1 199 6.8
2011-02-21 07:15:07 51°13.662 2°55.96 128.9 -999 286 6.8
2011-02-21 07:15:12 51°13.662 2°55.96 128.9 0.1 310 -999
2011-02-21 07:15:18 51°13.661 2°55.96 129.1 -999 10 -999
2011-02-21 07:15:23 51°13.661 2°55.96 129.3 -999 194 -999
2011-02-21 07:15:29 51°13.661 2°55.959 129.6 0.1 269 -999
2011-02-21 07:15:35 51°13.661 2°55.959 129.8 0.1 265 -999
2011-02-21 07:15:40 51°13.661 2°55.959 130 0.1 267 -999
2011-02-21 07:15:46 51°13.661 2°55.959 130.2 0.1 307 -999
2011-02-21 07:15:51 51°13.661 2°55.959 130.5 -999 227 -999
2011-02-21 07:15:55 51°13.661 2°55.959 130.6 0.1 102 -999
2011-02-21 07:16:00 51°13.661 2°55.959 130.6 0.1 154 -999
2011-02-21 07:16:06 51°13.661 2°55.959 130.5 0.1 138 -999
2011-02-21 07:16:11 51°13.661 2°55.959 130.1 0.1 260 -999
2011-02-21 07:16:15 51°13.661 2°55.959 129.9 0.1 259 -999
2011-02-21 07:16:20 51°13.661 2°55.958 129.3 0.1 260 -999
2011-02-21 07:16:25 51°13.661 2°55.959 128.6 -999 207 -999
2011-02-21 07:16:30 51°13.661 2°55.96 127.8 0.1 138 -999
2011-02-21 07:16:35 51°13.661 2°55.96 127 0.1 71 -999
2011-02-21 07:16:40 51°13.661 2°55.96 125.9 0.1 27 -999
2011-02-21 07:16:45 51°13.661 2°55.96 125 0.1 187 -999
2011-02-21 07:16:50 51°13.661 2°55.96 123.9 0.1 183 -999
2011-02-21 07:16:55 51°13.661 2°55.96 122.8 -999 315 -999
2011-02-21 07:17:00 51°13.661 2°55.96 122.2 -999 221 -999
2011-02-21 07:17:05 51°13.661 2°55.96 121.8 0.1 193 -999
2011-02-21 07:17:10 51°13.661 2°55.96 121 0.1 215 6.7
2011-02-21 07:17:15 51°13.661 2°55.96 120.2 0.1 193 6.7
2011-02-21 07:17:20 51°13.661 2°55.96 119.4 0.1 160 -999
2011-02-21 07:17:25 51°13.661 2°55.96 118.3 0.1 206 -999
2011-02-21 07:17:30 51°13.661 2°55.96 116.9 0.1 216 -999
2011-02-21 07:17:35 51°13.66 2°55.96 115.9 0.1 196 -999
2011-02-21 07:17:41 51°13.66 2°55.96 114.5 0.1 239 -999
2011-02-21 07:17:46 51°13.66 2°55.96 113.4 0.1 184 -999
2011-02-21 07:17:51 51°13.66 2°55.96 112.4 0.1 198 -999
2011-02-21 07:17:55 51°13.66 2°55.96 111.3 -999 291 -999
2011-02-21 07:18:00 51°13.66 2°55.959 110.4 0.2 260 -999
2011-02-21 07:18:06 51°13.66 2°55.958 109.7 0.6 281 -999
2011-02-21 07:18:11 51°13.661 2°55.955 109.4 1.1 288 -999
2011-02-21 07:18:15 51°13.662 2°55.953 109.3 1.4 285 6.7
2011-02-21 07:18:20 51°13.663 2°55.949 109.3 2 294 6.9
2011-02-21 07:18:25 51°13.664 2°55.944 109.3 2.4 291 7
2011-02-21 07:18:31 51°13.666 2°55.937 109.4 2.7 295 -999
2011-02-21 07:18:35 51°13.667 2°55.932 109.4 3.1 292 -999
2011-02-21 07:18:40 51°13.669 2°55.926 108.9 3.3 292 -999
2011-02-21 07:18:45 51°13.671 2°55.919 108.2 3.5 290 -999
2011-02-21 07:18:51 51°13.673 2°55.909 107.6 3.8 291 -999
2011-02-21 07:18:55 51°13.674 2°55.903 107 3.9 289 -999
2011-02-21 07:19:00 51°13.676 2°55.894 106.4 4 289 -999
2011-02-21 07:19:05 51°13.678 2°55.886 105.6 4 289 -999
2011-02-21 07:19:10 51°13.679 2°55.878 104.9 4 287 -999
2011-02-21 07:19:15 51°13.681 2°55.869 104.4 3.9 286 -999
2011-02-21 07:19:21 51°13.683 2°55.859 103.8 3.9 287 -999
2011-02-21 07:19:26 51°13.684 2°55.851 103.2 3.9 287 -999
2011-02-21 07:19:30 51°13.685 2°55.844 102.6 3.9 287 -999
2011-02-21 07:19:35 51°13.687 2°55.836 101.7 3.9 285 -999
2011-02-21 07:19:40 51°13.688 2°55.828 100.5 3.9 283 -999
2011-02-21 07:19:46 51°13.689 2°55.818 99.1 3.9 282 -999
2011-02-21 07:19:51 51°13.691 2°55.809 97.6 3.8 281 -999
2011-02-21 07:19:55 51°13.691 2°55.802 95.6 4 279 -999
2011-02-21 07:20:01 51°13.692 2°55.793 93 3.8 275 -999
2011-02-21 07:20:06 51°13.692 2°55.785 90 3.7 273 -999
2011-02-21 07:20:10 51°13.692 2°55.778 86.8 3.6 269 -999
2011-02-21 07:20:15 51°13.691 2°55.77 83.8 3.4 266 -999
2011-02-21 07:20:20 51°13.691 2°55.763 81.6 3.3 263 -999
2011-02-21 07:20:26 51°13.69 2°55.755 78.5 3.2 259 -999
2011-02-21 07:20:31 51°13.689 2°55.749 76 2.9 260 -999
2011-02-21 07:20:35 51°13.689 2°55.745 73.4 2.3 257 -999
2011-02-21 07:20:40 51°13.688 2°55.741 70.5 1.7 255 10.5
2011-02-21 07:20:45 51°13.688 2°55.739 68.4 1.2 260 10.5
2011-02-21 07:20:50 51°13.688 2°55.737 65.7 0.7 274 10.6
2011-02-21 07:20:55 51°13.688 2°55.736 62.5 0.5 301 10.5
2011-02-21 07:20:59 51°13.689 2°55.736 59.7 0.3 328 10.5
2011-02-21 07:21:04 51°13.689 2°55.736 55.8 0.4 357 10.6
2011-02-21 07:21:09 51°13.69 2°55.736 50.9 0.6 6 10.7
2011-02-21 07:21:14 51°13.691 2°55.736 47.8 0.8 7 10.8
2011-02-21 07:21:19 51°13.692 2°55.737 44.2 0.8 16 10.9
2011-02-21 07:21:23 51°13.693 2°55.737 40.7 0.9 14 10.9
2011-02-21 07:21:28 51°13.695 2°55.737 37.3 1.1 10 11.2
2011-02-21 07:21:33 51°13.696 2°55.738 33.2 1.1 6 10.9
2011-02-21 07:21:38 51°13.698 2°55.738 29.8 1.2 8 10.5
2011-02-21 07:21:43 51°13.7 2°55.739 27 1.3 8 10.4
2011-02-21 07:21:47 51°13.701 2°55.739 23 1.4 7 -999
2011-02-21 07:21:53 51°13.704 2°55.74 19.7 1.6 5 -999
2011-02-21 07:21:59 51°13.707 2°55.74 15.4 1.6 5 -999
2011-02-21 07:22:04 51°13.709 2°55.741 11.9 1.9 5 -999
2011-02-21 07:22:10 51°13.712 2°55.741 8.4 2 4 -999
2011-02-21 07:22:15 51°13.715 2°55.741 4.9 2.1 -999 -999
2011-02-21 07:22:20 51°13.719 2°55.74 0.8 2.5 357 -999
2011-02-21 07:22:26 51°13.723 2°55.739 355.5 2.6 352 -999
2011-02-21 07:22:31 51°13.727 2°55.738 349.5 2.8 349 -999
2011-02-21 07:22:35 51°13.73 2°55.736 344.2 2.9 344 10.9
2011-02-21 07:22:40 51°13.735 2°55.734 339.8 3.3 338 -999
2011-02-21 07:22:45 51°13.739 2°55.73 335.4 3.5 330 9.9
2011-02-21 07:22:50 51°13.743 2°55.725 331.2 3.9 328 9.5
2011-02-21 07:22:55 51°13.748 2°55.72 328.2 4.1 324 9.1
2011-02-21 07:22:59 51°13.752 2°55.715 324.9 4.4 321 9.5
2011-02-21 07:23:04 51°13.757 2°55.707 322.5 4.8 319 9.8
2011-02-21 07:23:09 51°13.763 2°55.699 321.1 5.3 318 9.5
2011-02-21 07:23:14 51°13.769 2°55.692 320.5 5.5 318 10.1
2011-02-21 07:23:19 51°13.775 2°55.683 320.7 5.7 320 10.2
2011-02-21 07:23:24 51°13.782 2°55.675 322.5 6.1 324 -999
2011-02-21 07:23:29 51°13.789 2°55.667 324.6 6.3 324 10
2011-02-21 07:23:34 51°13.797 2°55.659 326.4 6.6 327 9.6
2011-02-21 07:23:39 51°13.805 2°55.651 327.9 6.8 327 9.4
2011-02-21 07:23:43 51°13.812 2°55.645 328.9 7.1 330 9.6
2011-02-21 07:23:48 51°13.821 2°55.637 330.4 7.5 331 9.5
2011-02-21 07:23:54 51°13.832 2°55.627 332.5 7.7 332 -999
2011-02-21 07:23:59 51°13.842 2°55.62 334 8 333 9.6
2011-02-21 07:24:03 51°13.85 2°55.613 334.6 8.4 333 9.9
2011-02-21 07:24:08 51°13.861 2°55.604 334.7 8.5 333 9.5
2011-02-21 07:24:13 51°13.872 2°55.596 335.3 8.9 334 8.7
2011-02-21 07:24:18 51°13.883 2°55.588 335.6 8.9 334 9.1
2011-02-21 07:24:23 51°13.895 2°55.579 335.7 9 335 9.2
2011-02-21 07:24:28 51°13.906 2°55.571 336 9.2 335 -999
2011-02-21 07:24:34 51°13.921 2°55.56 336.5 9.5 335 -999
2011-02-21 07:24:39 51°13.932 2°55.551 336.1 9.5 334 -999
2011-02-21 07:24:45 51°13.947 2°55.54 336.2 9.6 336 -999
2011-02-21 07:24:50 51°13.959 2°55.531 336.6 9.5 335 9.9
2011-02-21 07:24:55 51°13.97 2°55.522 336.3 9.6 334 9.6
2011-02-21 07:25:00 51°13.983 2°55.513 336.3 9.7 336 -999
2011-02-21 07:25:06 51°13.998 2°55.502 336.9 9.9 335 9.6
2011-02-21 07:25:10 51°14.008 2°55.494 336.6 9.9 336 9.4
2011-02-21 07:25:15 51°14.021 2°55.486 337.5 9.9 338 9.4
2011-02-21 07:25:19 51°14.031 2°55.48 338.6 10 337 9.3
2011-02-21 07:25:25 51°14.047 2°55.47 338.6 10 337 9.3
2011-02-21 07:25:30 51°14.06 2°55.461 338.8 10.3 338 9.2
2011-02-21 07:25:35 51°14.073 2°55.452 339.4 10.3 337 9.1
2011-02-21 07:25:40 51°14.087 2°55.444 339.5 10.4 337 8.8
2011-02-21 07:25:45 51°14.1 2°55.433 338.9 10.7 336 -999
2011-02-21 07:25:50 51°14.114 2°55.424 338.3 10.8 336 -999
2011-02-21 07:25:55 51°14.127 2°55.414 338.6 10.6 336 -999
2011-02-21 07:26:00 51°14.14 2°55.403 337.7 10.8 334 -999
2011-02-21 07:26:06 51°14.157 2°55.391 336.7 10.8 335 -999
2011-02-21 07:26:10 51°14.167 2°55.382 336.1 10.9 334 -999
2011-02-21 07:26:15 51°14.181 2°55.371 335.5 10.8 332 -999
2011-02-21 07:26:21 51°14.197 2°55.357 334.5 11.1 331 -999
2011-02-21 07:26:25 51°14.208 2°55.347 333.2 11.2 330 -999
2011-02-21 07:26:30 51°14.222 2°55.335 332.6 11.3 331 -999
2011-02-21 07:26:35 51°14.235 2°55.322 332.8 11.3 330 -999
2011-02-21 07:26:41 51°14.251 2°55.306 332.2 11.4 328 -999
2011-02-21 07:26:46 51°14.264 2°55.293 330.4 11.4 328 -999
2011-02-21 07:26:51 51°14.278 2°55.279 330.2 11.5 328 -999
2011-02-21 07:26:55 51°14.288 2°55.268 329.7 11.7 326 -999
2011-02-21 07:27:00 51°14.302 2°55.254 329.8 11.9 328 -999
2011-02-21 07:27:05 51°14.316 2°55.239 329.4 11.9 326 -999
2011-02-21 07:27:11 51°14.333 2°55.223 329.1 12 327 -999
2011-02-21 07:27:15 51°14.344 2°55.211 329.5 12 326 8.9
2011-02-21 07:27:20 51°14.358 2°55.196 329.5 12.1 327 9.1
2011-02-21 07:27:25 51°14.372 2°55.182 329.5 12.2 327 8.8
2011-02-21 07:27:30 51°14.387 2°55.168 329.8 12.3 327 8.8
2011-02-21 07:27:35 51°14.401 2°55.153 329.6 12.3 329 8.6
2011-02-21 07:27:39 51°14.412 2°55.141 330.3 12.4 327 8.9
2011-02-21 07:27:44 51°14.427 2°55.126 329.6 12.4 327 8.7
2011-02-21 07:27:49 51°14.442 2°55.111 329.4 12.4 327 9
2011-02-21 07:27:54 51°14.455 2°55.094 328.7 12.4 323 9.7
2011-02-21 07:27:59 51°14.469 2°55.077 326.8 12.5 323 9.5
2011-02-21 07:28:03 51°14.481 2°55.064 325.9 12.6 323 9.9
2011-02-21 07:28:07 51°14.492 2°55.05 325.8 12.6 323 9.6
2011-02-21 07:28:13 51°14.509 2°55.031 325.5 12.6 325 9.3
2011-02-21 07:28:18 51°14.524 2°55.014 327.2 12.8 325 9.7
2011-02-21 07:28:22 51°14.535 2°55 327.5 12.9 322 10
2011-02-21 07:28:27 51°14.549 2°54.982 326.9 13.1 321 9.8
2011-02-21 07:28:31 51°14.56 2°54.966 326.8 13.1 319 10
2011-02-21 07:28:37 51°14.576 2°54.942 325.8 13.3 317 10.2
2011-02-21 07:28:42 51°14.59 2°54.922 324.8 13.3 317 10.1
2011-02-21 07:28:47 51°14.604 2°54.902 325.2 13.4 318 10.1
2011-02-21 07:28:52 51°14.618 2°54.882 325.2 13.4 317 10.1
2011-02-21 07:28:57 51°14.631 2°54.862 325.2 13.3 319 10.3
2011-02-21 07:29:02 51°14.646 2°54.843 326.1 13.4 319 10.2
2011-02-21 07:29:07 51°14.66 2°54.824 326.1 13.3 320 10.2
2011-02-21 07:29:12 51°14.674 2°54.805 326.7 13.4 321 10.2
2011-02-21 07:29:17 51°14.688 2°54.786 327 13.3 319 10.1
2011-02-21 07:29:22 51°14.703 2°54.767 326.4 13.3 319 10.3
2011-02-21 07:29:27 51°14.717 2°54.748 325.9 13.4 319 10.4
2011-02-21 07:29:32 51°14.731 2°54.728 325.5 13.4 319 10.6
2011-02-21 07:29:37 51°14.745 2°54.708 325.2 13.5 319 10.3
2011-02-21 07:29:42 51°14.759 2°54.69 325.9 13.3 320 9.6
2011-02-21 07:29:47 51°14.774 2°54.673 327.3 13.1 322 10.5
2011-02-21 07:29:52 51°14.789 2°54.656 329.6 13.1 326 10.6
2011-02-21 07:29:57 51°14.804 2°54.64 332.2 13.2 327 10.1
2011-02-21 07:30:02 51°14.82 2°54.625 334.3 13.1 329 10.4
2011-02-21 07:30:07 51°14.835 2°54.611 336.4 13.2 331 10
2011-02-21 07:30:12 51°14.852 2°54.597 337.9 13.2 332 10.1
2011-02-21 07:30:17 51°14.868 2°54.584 339.3 13.2 334 10.3
2011-02-21 07:30:22 51°14.885 2°54.572 340.3 13 335 10
2011-02-21 07:30:27 51°14.901 2°54.56 341.2 13 336 10.4
2011-02-21 07:30:32 51°14.917 2°54.549 342 12.9 336 9.7
2011-02-21 07:30:37 51°14.933 2°54.537 342.3 12.8 336 9.6
2011-02-21 07:30:42 51°14.949 2°54.525 342.2 12.9 336 9.6
2011-02-21 07:30:47 51°14.966 2°54.513 341.9 12.9 335 9.4
2011-02-21 07:30:52 51°14.982 2°54.501 341.3 12.9 335 9.4
2011-02-21 07:30:57 51°14.998 2°54.489 340.5 12.9 334 9.5
2011-02-21 07:31:02 51°15.015 2°54.476 340 13 334 9.6
2011-02-21 07:31:07 51°15.03 2°54.463 339.6 12.9 333 9.5
2011-02-21 07:31:12 51°15.046 2°54.45 339.2 12.9 333 9.2
2011-02-21 07:31:17 51°15.061 2°54.436 338.7 12.8 333 9.2
2011-02-21 07:31:22 51°15.077 2°54.423 338.3 12.9 332 9
2011-02-21 07:31:27 51°15.093 2°54.41 338.3 12.8 333 8.7
2011-02-21 07:31:32 51°15.109 2°54.398 338.4 12.8 335 8.7
2011-02-21 07:31:37 51°15.125 2°54.387 340.5 12.6 338 8.4
2011-02-21 07:31:42 51°15.141 2°54.379 344.1 12.6 341 8.2
2011-02-21 07:31:47 51°15.158 2°54.371 347.7 12.4 344 8.1
2011-02-21 07:31:52 51°15.174 2°54.365 350.7 12.4 346 8.1
2011-02-21 07:31:57 51°15.191 2°54.36 353 12.3 349 5.9
2011-02-21 07:32:02 51°15.208 2°54.356 354.9 12.3 350 7.7
2011-02-21 07:32:07 51°15.225 2°54.351 356.5 12.2 351 7.6
2011-02-21 07:32:12 51°15.242 2°54.348 357.9 12.1 353 7.8
2011-02-21 07:32:17 51°15.258 2°54.345 359.5 12 354 7.6
2011-02-21 07:32:22 51°15.275 2°54.343 0.2 11.9 354 7.3
2011-02-21 07:32:27 51°15.292 2°54.34 0.6 12.1 355 7.7
2011-02-21 07:32:32 51°15.309 2°54.338 1.2 12.2 356 7.8
2011-02-21 07:32:37 51°15.326 2°54.336 2.2 12.2 355 7.7
2011-02-21 07:32:42 51°15.342 2°54.334 2.4 12.2 355 7.5
2011-02-21 07:32:47 51°15.359 2°54.333 2.3 12.1 356 7.6
2011-02-21 07:32:52 51°15.376 2°54.331 3.1 12.1 355 7.9
2011-02-21 07:32:57 51°15.393 2°54.328 2.4 12.3 354 8.1
2011-02-21 07:33:02 51°15.41 2°54.325 2.1 12.3 355 8
2011-02-21 07:33:07 51°15.427 2°54.323 1.5 12.4 353 6
2011-02-21 07:33:12 51°15.445 2°54.318 359.7 12.6 352 7.9
2011-02-21 07:33:17 51°15.462 2°54.313 358.3 12.7 349 8.1
2011-02-21 07:33:22 51°15.479 2°54.307 356.3 12.6 347 8.2
2011-02-21 07:33:27 51°15.496 2°54.3 354.1 12.6 346 8.4
2011-02-21 07:33:31 51°15.51 2°54.294 352.9 12.8 346 8.4
2011-02-21 07:33:37 51°15.53 2°54.285 352.1 12.7 345 8.6
2011-02-21 07:33:42 51°15.547 2°54.278 351.4 12.9 345 8.4
2011-02-21 07:33:47 51°15.564 2°54.27 351.3 12.9 345 8.3
2011-02-21 07:33:52 51°15.582 2°54.264 352.3 12.8 347 8.5
2011-02-21 07:33:57 51°15.599 2°54.258 353.7 12.9 348 8.7
2011-02-21 07:34:02 51°15.617 2°54.253 355.2 12.8 350 8.7
2011-02-21 07:34:07 51°15.634 2°54.249 357 12.8 351 8.6
2011-02-21 07:34:12 51°15.652 2°54.245 359.1 12.7 353 8.8
2011-02-21 07:34:17 51°15.669 2°54.243 0.1 12.7 354 8.6
2011-02-21 07:34:22 51°15.687 2°54.24 0.8 12.8 355 8.9
2011-02-21 07:34:27 51°15.705 2°54.237 1.9 12.7 355 8.9
2011-02-21 07:34:32 51°15.722 2°54.234 2.1 12.7 354 8.8
2011-02-21 07:34:37 51°15.739 2°54.231 1.7 12.6 354 9
2011-02-21 07:34:42 51°15.757 2°54.228 1.7 12.7 353 9.2
2011-02-21 07:34:47 51°15.775 2°54.224 0.6 12.7 352 9
2011-02-21 07:34:52 51°15.792 2°54.22 0.1 12.8 352 9.1
2011-02-21 07:34:57 51°15.81 2°54.215 359 12.8 350 8.9
2011-02-21 07:35:02 51°15.827 2°54.21 358.1 12.8 350 9
2011-02-21 07:35:07 51°15.845 2°54.205 357.7 12.9 350 9.1
2011-02-21 07:35:12 51°15.863 2°54.2 357.2 12.8 349 9.3
2011-02-21 07:35:17 51°15.88 2°54.195 356.5 12.9 350 9.2
2011-02-21 07:35:22 51°15.898 2°54.19 357.3 12.9 350 9.3
2011-02-21 07:35:27 51°15.915 2°54.185 357.6 12.9 350 9.4
2011-02-21 07:35:32 51°15.933 2°54.181 358.1 12.9 352 9.1
2011-02-21 07:35:37 51°15.951 2°54.178 359.7 12.8 353 9.4
2011-02-21 07:35:42 51°15.968 2°54.174 0.5 12.8 353 9.4
2011-02-21 07:35:47 51°15.986 2°54.171 0.7 12.7 353 9.4
2011-02-21 07:35:52 51°16.004 2°54.169 1.5 12.7 355 9.5
2011-02-21 07:35:57 51°16.021 2°54.165 1.8 12.7 353 9.3
2011-02-21 07:36:02 51°16.038 2°54.162 1.4 12.7 353 9.4
2011-02-21 07:36:07 51°16.056 2°54.159 1.4 12.8 353 9.4
2011-02-21 07:36:12 51°16.074 2°54.155 0.8 12.8 352 9.4
2011-02-21 07:36:17 51°16.092 2°54.151 0.1 12.9 352 9.5
2011-02-21 07:36:22 51°16.109 2°54.147 -999 12.9 351 9.5
2011-02-21 07:36:27 51°16.127 2°54.143 359.1 12.8 352 9.6
2011-02-21 07:36:32 51°16.144 2°54.139 359.4 12.8 353 9.5
2011-02-21 07:36:37 51°16.162 2°54.135 359.8 12.7 353 9.6
2011-02-21 07:36:42 51°16.179 2°54.132 -999 12.8 353 9.7
2011-02-21 07:36:47 51°16.197 2°54.129 0.5 12.8 354 9.7
2011-02-21 07:36:52 51°16.215 2°54.126 0.6 12.8 354 9.7
2011-02-21 07:36:57 51°16.231 2°54.123 0.2 11.9 354 9.5
2011-02-21 07:37:02 51°16.247 2°54.123 1.1 11.1 -999 9.9
2011-02-21 07:37:07 51°16.26 2°54.125 7.5 10.4 6 9.8
2011-02-21 07:37:12 51°16.272 2°54.131 16 9.1 16 9.8
2011-02-21 07:37:17 51°16.282 2°54.139 24.8 8 24 9.6
2011-02-21 07:37:22 51°16.29 2°54.147 32.5 7.1 31 9.8
2011-02-21 07:37:27 51°16.297 2°54.156 39.9 6.5 37 9.9
2011-02-21 07:37:32 51°16.302 2°54.165 45 5.9 44 9.9
2011-02-21 07:37:37 51°16.306 2°54.174 53 5.2 54 9.8
2011-02-21 07:37:42 51°16.309 2°54.184 59.7 4.8 62 10.1
2011-02-21 07:37:47 51°16.311 2°54.193 66.2 4.4 69 10
2011-02-21 07:37:52 51°16.312 2°54.202 71.3 4.1 77 10
2011-02-21 07:37:57 51°16.313 2°54.21 77.5 3.8 86 10.1
2011-02-21 07:38:02 51°16.312 2°54.218 83.2 3.5 93 10
2011-02-21 07:38:07 51°16.311 2°54.225 90.1 3.4 100 9.9
2011-02-21 07:38:12 51°16.31 2°54.232 94.2 3.3 106 9.9
2011-02-21 07:38:17 51°16.307 2°54.238 99.5 3.2 119 10
2011-02-21 07:38:22 51°16.305 2°54.244 105.3 3.1 126 10
2011-02-21 07:38:27 51°16.302 2°54.249 111.9 3 133 10
2011-02-21 07:38:32 51°16.299 2°54.253 117.1 3 138 10
2011-02-21 07:38:37 51°16.296 2°54.257 121.5 2.8 145 9.7
2011-02-21 07:38:42 51°16.292 2°54.26 124.8 2.6 150 9.8
2011-02-21 07:38:47 51°16.289 2°54.262 127.9 2.4 154 10.1
2011-02-21 07:38:52 51°16.287 2°54.264 130.7 2.3 160 9.9
2011-02-21 07:38:57 51°16.284 2°54.265 132.3 2 169 10
2011-02-21 07:39:02 51°16.282 2°54.265 133.9 1.8 174 9.9
2011-02-21 07:39:07 51°16.279 2°54.265 137.1 1.7 181 9.9
2011-02-21 07:39:12 51°16.277 2°54.264 139.8 1.6 193 9.9
2011-02-21 07:39:17 51°16.276 2°54.263 142.7 1.3 203 9.9
2011-02-21 07:39:22 51°16.274 2°54.26 145.9 1.4 226 10
2011-02-21 07:39:27 51°16.273 2°54.258 148.8 1.2 237 10
2011-02-21 07:39:32 51°16.272 2°54.256 152 1.4 243 10
2011-02-21 07:39:37 51°16.272 2°54.253 153.8 1.3 243 9.8
2011-02-21 07:39:42 51°16.271 2°54.25 155.6 1.4 243 9.7
2011-02-21 07:39:47 51°16.27 2°54.248 157.1 1.3 243 9.8
2011-02-21 07:39:52 51°16.269 2°54.245 158.4 1.4 247 9.8
2011-02-21 07:39:57 51°16.268 2°54.242 160.1 1.4 244 9.9
2011-02-21 07:40:02 51°16.267 2°54.239 161.9 1.4 245 9.8
2011-02-21 07:40:07 51°16.266 2°54.236 164.2 1.4 244 9.9
2011-02-21 07:40:12 51°16.265 2°54.233 165.9 1.5 245 9.9
2011-02-21 07:40:17 51°16.265 2°54.23 168.1 1.5 246 9.9
2011-02-21 07:40:22 51°16.264 2°54.226 170.7 1.6 245 10
2011-02-21 07:40:27 51°16.263 2°54.223 173.1 1.6 245 9.9
2011-02-21 07:40:32 51°16.262 2°54.22 174.6 1.6 248 9.8
2011-02-21 07:40:37 51°16.261 2°54.217 176.7 1.6 247 10
2011-02-21 07:40:42 51°16.26 2°54.214 179 1.5 245 10
2011-02-21 07:40:47 51°16.259 2°54.21 181.5 1.6 247 9.9
2011-02-21 07:40:52 51°16.259 2°54.206 183.2 1.7 246 9.8
2011-02-21 07:40:57 51°16.258 2°54.203 184.9 1.7 245 9.8
2011-02-21 07:41:02 51°16.257 2°54.201 186.5 1.6 244 10
2011-02-21 07:41:07 51°16.256 2°54.197 188.5 1.7 246 9.8
2011-02-21 07:41:12 51°16.255 2°54.194 190 1.6 244 9.9
2011-02-21 07:41:17 51°16.254 2°54.191 191.3 1.6 246 9.8
2011-02-21 07:41:22 51°16.253 2°54.188 192.8 1.6 244 9.9
2011-02-21 07:41:27 51°16.252 2°54.184 194.1 1.7 247 9.7
2011-02-21 07:41:32 51°16.251 2°54.181 195.3 1.6 247 9.8
2011-02-21 07:41:37 51°16.25 2°54.178 196.9 1.6 246 10
2011-02-21 07:41:42 51°16.249 2°54.174 198 1.6 248 10
2011-02-21 07:41:47 51°16.248 2°54.171 199 1.7 247 9.8
2011-02-21 07:41:52 51°16.247 2°54.167 200 1.7 249 9.7
2011-02-21 07:41:57 51°16.246 2°54.163 201.2 1.7 247 9.9
2011-02-21 07:42:02 51°16.245 2°54.16 202.5 1.7 248 9.9
2011-02-21 07:42:07 51°16.245 2°54.156 203.4 1.8 249 9.7
2011-02-21 07:42:12 51°16.244 2°54.153 204.7 1.7 247 9.8
2011-02-21 07:42:17 51°16.243 2°54.15 205.8 1.7 248 9.9
2011-02-21 07:42:22 51°16.242 2°54.146 206.4 1.7 247 10
2011-02-21 07:42:27 51°16.241 2°54.143 207.2 1.9 251 9.7
2011-02-21 07:42:32 51°16.24 2°54.139 208.2 1.7 246 9.9
2011-02-21 07:42:37 51°16.239 2°54.136 209.1 1.7 248 10
2011-02-21 07:42:42 51°16.238 2°54.132 209.8 1.7 248 9.9
2011-02-21 07:42:47 51°16.238 2°54.128 210.4 1.8 252 9.7
2011-02-21 07:42:52 51°16.237 2°54.125 210.7 1.8 250 9.8
2011-02-21 07:42:57 51°16.236 2°54.121 211.3 1.8 248 9.9
2011-02-21 07:43:02 51°16.235 2°54.118 211.5 1.7 249 9.9
2011-02-21 07:43:07 51°16.234 2°54.114 211.5 1.7 250 9.9
2011-02-21 07:43:12 51°16.233 2°54.111 211.7 1.8 249 9.9
2011-02-21 07:43:17 51°16.232 2°54.107 211.6 1.7 249 9.8
2011-02-21 07:43:22 51°16.232 2°54.104 211.6 1.7 248 9.9
2011-02-21 07:43:27 51°16.231 2°54.1 211.5 1.8 252 9.7
2011-02-21 07:43:32 51°16.23 2°54.097 211.5 1.6 247 9.8
2011-02-21 07:43:37 51°16.229 2°54.093 211.3 1.7 250 9.8
2011-02-21 07:43:42 51°16.228 2°54.09 211.2 1.7 248 9.8
2011-02-21 07:43:47 51°16.227 2°54.086 210.8 1.7 247 9.8
2011-02-21 07:43:52 51°16.226 2°54.082 210.8 1.7 248 9.8
2011-02-21 07:43:57 51°16.225 2°54.079 210.8 1.7 250 10
2011-02-21 07:44:02 51°16.224 2°54.076 210.8 1.6 247 10
2011-02-21 07:44:07 51°16.224 2°54.073 210.6 1.6 247 9.9
2011-02-21 07:44:12 51°16.223 2°54.069 210.5 1.7 246 10
2011-02-21 07:44:17 51°16.222 2°54.066 210.4 1.7 247 10
2011-02-21 07:44:22 51°16.221 2°54.062 210.1 1.7 249 9.8
2011-02-21 07:44:27 51°16.22 2°54.059 209.8 1.7 248 9.9
2011-02-21 07:44:32 51°16.219 2°54.056 209.7 1.6 248 10
2011-02-21 07:44:37 51°16.219 2°54.052 209.1 1.7 249 9.9
2011-02-21 07:44:42 51°16.218 2°54.049 208.8 1.6 246 10
2011-02-21 07:44:47 51°16.217 2°54.045 208.5 1.7 248 10
2011-02-21 07:44:52 51°16.216 2°54.042 208 1.6 247 10
2011-02-21 07:44:57 51°16.215 2°54.038 207.4 1.7 248 9.8
2011-02-21 07:45:02 51°16.214 2°54.034 206.9 1.8 249 9.7
2011-02-21 07:45:07 51°16.213 2°54.032 206.2 1.6 244 10
2011-02-21 07:45:12 51°16.212 2°54.029 206 1.6 246 10
2011-02-21 07:45:17 51°16.212 2°54.025 205.3 1.7 248 9.8
2011-02-21 07:45:22 51°16.211 2°54.022 204.8 1.6 245 9.9
2011-02-21 07:45:27 51°16.21 2°54.018 204.4 1.6 246 9.9
2011-02-21 07:45:32 51°16.209 2°54.015 203.6 1.8 249 9.9
2011-02-21 07:45:37 51°16.208 2°54.012 203.3 1.7 249 9.8
2011-02-21 07:45:42 51°16.207 2°54.008 202.9 1.8 250 9.8
2011-02-21 07:45:47 51°16.206 2°54.005 202.6 1.6 247 10.1
2011-02-21 07:45:52 51°16.205 2°54.002 202.3 1.6 248 10.1
2011-02-21 07:45:57 51°16.205 2°53.998 201.6 1.7 249 9.9
2011-02-21 07:46:02 51°16.204 2°53.995 201.1 1.6 246 10
2011-02-21 07:46:07 51°16.203 2°53.991 201.1 1.7 249 9.9
2011-02-21 07:46:12 51°16.202 2°53.988 200.7 1.7 249 9.9
2011-02-21 07:46:17 51°16.201 2°53.985 200.3 1.7 249 10
2011-02-21 07:46:22 51°16.2 2°53.982 199.9 1.7 250 9.8
2011-02-21 07:46:27 51°16.199 2°53.979 199.7 1.5 245 9.9
2011-02-21 07:46:32 51°16.198 2°53.975 199.2 1.8 251 9.9
2011-02-21 07:46:37 51°16.198 2°53.972 198.7 1.7 247 9.8
2011-02-21 07:46:42 51°16.197 2°53.969 198.4 1.5 246 9.9
2011-02-21 07:46:47 51°16.196 2°53.966 198.2 1.5 247 10
2011-02-21 07:46:52 51°16.195 2°53.962 197.7 1.7 247 9.8
2011-02-21 07:46:57 51°16.194 2°53.958 197.1 1.8 246 9.7
2011-02-21 07:47:02 51°16.193 2°53.955 197.1 1.6 244 9.9
2011-02-21 07:47:07 51°16.192 2°53.952 196.8 1.7 246 9.9
2011-02-21 07:47:12 51°16.191 2°53.948 196.5 1.7 246 9.9
2011-02-21 07:47:17 51°16.19 2°53.945 196.1 1.7 248 9.9
2011-02-21 07:47:22 51°16.189 2°53.941 196.1 1.6 246 10
2011-02-21 07:47:27 51°16.189 2°53.938 196 1.7 248 10
2011-02-21 07:47:32 51°16.188 2°53.934 195.8 1.6 248 9.9
2011-02-21 07:47:37 51°16.187 2°53.931 195.4 1.7 248 10
2011-02-21 07:47:42 51°16.186 2°53.927 195.3 1.8 245 10
2011-02-21 07:47:47 51°16.185 2°53.924 195 1.9 242 9.9
2011-02-21 07:47:52 51°16.183 2°53.92 194.6 2 232 10
2011-02-21 07:47:57 51°16.181 2°53.916 194.7 2.3 229 9.8
2011-02-21 07:48:02 51°16.179 2°53.912 196.4 2.5 227 9.8
2011-02-21 07:48:07 51°16.176 2°53.907 198.2 2.6 226 10
2011-02-21 07:48:12 51°16.173 2°53.903 201.6 2.8 224 10.1
2011-02-21 07:48:17 51°16.17 2°53.897 204.8 3.4 227 10
2011-02-21 07:48:22 51°16.166 2°53.892 208.9 3.7 227 10.1
2011-02-21 07:48:27 51°16.162 2°53.886 214.4 3.9 226 10.1
2011-02-21 07:48:32 51°16.159 2°53.878 219.7 4.2 232 9.9
2011-02-21 07:48:37 51°16.155 2°53.869 225.4 4.6 234 10
2011-02-21 07:48:42 51°16.152 2°53.86 231.6 4.7 242 10
2011-02-21 07:48:47 51°16.149 2°53.851 238.2 4.8 242 10.1
2011-02-21 07:48:52 51°16.147 2°53.84 244.9 5.1 251 9.9
2011-02-21 07:48:57 51°16.145 2°53.829 251.5 5.2 254 9.9
2011-02-21 07:49:02 51°16.144 2°53.817 258.4 5.2 260 9.7
2011-02-21 07:49:07 51°16.143 2°53.806 265.1 5.3 263 10
2011-02-21 07:49:12 51°16.143 2°53.794 272.1 5.3 270 10.1
2011-02-21 07:49:17 51°16.144 2°53.783 279.3 5.3 275 10
2011-02-21 07:49:22 51°16.145 2°53.771 286.1 5.2 281 9.8
2011-02-21 07:49:27 51°16.148 2°53.76 293 5.2 286 10
2011-02-21 07:49:32 51°16.151 2°53.75 300 5.1 292 10.2
2011-02-21 07:49:37 51°16.154 2°53.74 307.3 5 298 10.2
2011-02-21 07:49:42 51°16.158 2°53.731 314.4 5 304 9.9
2011-02-21 07:49:47 51°16.162 2°53.723 320.7 4.8 309 10.1
2011-02-21 07:49:52 51°16.167 2°53.716 327.3 4.7 316 10.1
2011-02-21 07:49:57 51°16.172 2°53.71 334 4.6 321 10.1
2011-02-21 07:50:02 51°16.177 2°53.705 340.5 4.4 328 10
2011-02-21 07:50:07 51°16.182 2°53.7 347.3 4.4 333 10
2011-02-21 07:50:11 51°16.187 2°53.698 354 4.2 341 10
2011-02-21 07:50:17 51°16.194 2°53.695 0.5 4.2 345 9.9
2011-02-21 07:50:22 51°16.199 2°53.694 7.1 3.9 354 10
2011-02-21 07:50:27 51°16.204 2°53.695 13.6 3.7 -999 10.3
2011-02-21 07:50:32 51°16.209 2°53.696 19.9 3.5 8 10.2
2011-02-21 07:50:37 51°16.213 2°53.698 26.4 3.5 15 10
2011-02-21 07:50:42 51°16.218 2°53.701 31.7 3.3 24 10
2011-02-21 07:50:47 51°16.221 2°53.705 39.3 3.3 31 10.1
2011-02-21 07:50:51 51°16.224 2°53.709 45.8 3.2 41 10.1
2011-02-21 07:50:57 51°16.227 2°53.715 52.2 3.1 50 10.2
2011-02-21 07:51:02 51°16.229 2°53.721 58.7 3.1 60 10.2
2011-02-21 07:51:07 51°16.231 2°53.727 63.8 3.3 67 10.2
2011-02-21 07:51:11 51°16.232 2°53.734 71.9 3.6 78 10.3
2011-02-21 07:51:17 51°16.233 2°53.744 77.3 4 84 10.1
2011-02-21 07:51:22 51°16.233 2°53.754 82.8 4.3 90 10.1
2011-02-21 07:51:27 51°16.231 2°53.764 87.9 4.5 99 10.3
2011-02-21 07:51:32 51°16.23 2°53.774 92.6 4.8 103 10
2011-02-21 07:51:36 51°16.228 2°53.783 99.8 5.3 110 10.1
2011-02-21 07:51:42 51°16.225 2°53.797 102.8 5.6 110 10
2011-02-21 07:51:47 51°16.222 2°53.809 104.7 5.8 109 10
2011-02-21 07:51:52 51°16.219 2°53.821 104.2 5.9 110 9.9
2011-02-21 07:51:57 51°16.217 2°53.835 103.9 6.1 107 10
2011-02-21 07:52:02 51°16.214 2°53.848 101.7 6.3 105 10
2011-02-21 07:52:07 51°16.213 2°53.862 99.1 6.4 99 9.7
2011-02-21 07:52:12 51°16.212 2°53.876 95.7 6.5 97 9.8
2011-02-21 07:52:17 51°16.212 2°53.891 92.3 6.5 94 9.8
2011-02-21 07:52:22 51°16.211 2°53.906 90.6 6.7 93 9.9
2011-02-21 07:52:27 51°16.211 2°53.92 88.6 6.7 88 9.8
2011-02-21 07:52:32 51°16.211 2°53.935 86.8 6.8 90 9.8
2011-02-21 07:52:37 51°16.212 2°53.95 85.8 6.7 86 9.8
2011-02-21 07:52:42 51°16.212 2°53.965 84.4 6.8 88 10
2011-02-21 07:52:47 51°16.214 2°53.98 84.2 6.9 84 10
2011-02-21 07:52:52 51°16.215 2°53.996 83.6 7 86 10
2011-02-21 07:52:57 51°16.216 2°54.011 83.4 7 84 9.8
2011-02-21 07:53:02 51°16.216 2°54.026 83.4 7 85 9.8
2011-02-21 07:53:07 51°16.218 2°54.042 83.1 7 84 9.6
2011-02-21 07:53:11 51°16.218 2°54.054 83.6 7 86 9.7
2011-02-21 07:53:17 51°16.219 2°54.072 84.3 7 85 9.7
2011-02-21 07:53:22 51°16.219 2°54.088 84.5 7 87 9.6
2011-02-21 07:53:27 51°16.221 2°54.104 84.6 7 85 9.7
2011-02-21 07:53:32 51°16.221 2°54.119 84.3 7.1 86 9.7
2011-02-21 07:53:36 51°16.222 2°54.132 84.3 7 85 9.5
2011-02-21 07:53:42 51°16.223 2°54.151 84.2 7.1 86 9.7
2011-02-21 07:53:47 51°16.224 2°54.166 83.4 7 83 9.4
2011-02-21 07:53:52 51°16.225 2°54.182 83.6 7.1 85 9.4
2011-02-21 07:53:57 51°16.226 2°54.197 83.2 7 83 9.6
2011-02-21 07:54:02 51°16.226 2°54.211 83.2 6.7 86 9.6
2011-02-21 07:54:07 51°16.228 2°54.226 83.6 6.6 83 9.6
2011-02-21 07:54:12 51°16.228 2°54.239 83.7 6.4 85 9.7
2011-02-21 07:54:17 51°16.229 2°54.252 83.7 6 85 9.7
2011-02-21 07:54:22 51°16.229 2°54.265 84.1 5.7 85 9.4
2011-02-21 07:54:27 51°16.23 2°54.277 84.3 5.4 87 9.7
2011-02-21 07:54:32 51°16.23 2°54.288 84.5 5.1 86 9.5
2011-02-21 07:54:37 51°16.23 2°54.298 85 4.7 88 9.6
2011-02-21 07:54:42 51°16.23 2°54.307 85.1 4.3 91 9.7
2011-02-21 07:54:47 51°16.23 2°54.316 86.3 3.9 92 9.7
2011-02-21 07:54:52 51°16.23 2°54.324 87.3 3.7 91 9.6
2011-02-21 07:54:57 51°16.229 2°54.331 89.9 3.5 99 9.7
2011-02-21 07:55:02 51°16.228 2°54.338 92.4 3.1 101 9.5
2011-02-21 07:55:07 51°16.226 2°54.344 94.7 3 109 9.7
2011-02-21 07:55:11 51°16.226 2°54.348 96.3 2.6 107 9.5
2011-02-21 07:55:17 51°16.224 2°54.353 98.7 2.2 118 9.6
2011-02-21 07:55:22 51°16.223 2°54.357 101.6 1.8 125 9.6
2011-02-21 07:55:27 51°16.221 2°54.36 107.4 1.9 134 9.7
2011-02-21 07:55:32 51°16.22 2°54.362 110.4 1.7 129 9.5
2011-02-21 07:55:37 51°16.217 2°54.364 113.5 1.8 146 9.7
2011-02-21 07:55:42 51°16.216 2°54.366 115.8 1.6 146 9.7
2011-02-21 07:55:47 51°16.214 2°54.368 117.9 1.7 151 9.7
2011-02-21 07:55:52 51°16.212 2°54.37 119.1 1.6 153 9.6
2011-02-21 07:55:57 51°16.209 2°54.371 119.7 1.6 161 9.7
2011-02-21 07:56:02 51°16.208 2°54.372 120.1 1.4 162 9.8
2011-02-21 07:56:07 51°16.206 2°54.374 119.9 1.5 160 9.5
2011-02-21 07:56:12 51°16.204 2°54.375 119.2 1.4 157 9.5
2011-02-21 07:56:16 51°16.202 2°54.376 117.9 1.4 160 9.6
2011-02-21 07:56:22 51°16.201 2°54.377 116.7 1.2 157 9.6
2011-02-21 07:56:27 51°16.199 2°54.378 115 1.3 164 9.6
2011-02-21 07:56:31 51°16.198 2°54.379 113.5 1.1 159 9.6
2011-02-21 07:56:37 51°16.196 2°54.38 111.9 1.2 164 9.7
2011-02-21 07:56:42 51°16.194 2°54.38 110.1 1 163 9.5
2011-02-21 07:56:47 51°16.193 2°54.381 108.6 1.1 163 9.5
2011-02-21 07:56:52 51°16.192 2°54.382 106.2 0.9 159 9.6
2011-02-21 07:56:57 51°16.191 2°54.382 105 0.9 167 9.7
2011-02-21 07:57:02 51°16.19 2°54.383 103.6 0.7 164 9.5
2011-02-21 07:57:07 51°16.189 2°54.383 101.6 0.8 171 9.6
2011-02-21 07:57:12 51°16.188 2°54.383 99.3 0.6 173 9.6
2011-02-21 07:57:17 51°16.187 2°54.383 98.1 0.7 178 9.6
2011-02-21 07:57:22 51°16.187 2°54.383 96.1 0.7 178 9.7
2011-02-21 07:57:27 51°16.186 2°54.383 94.6 0.6 182 9.7
2011-02-21 07:57:31 51°16.185 2°54.383 92.2 0.6 178 9.7
2011-02-21 07:57:37 51°16.185 2°54.383 91 0.4 183 9.5
2011-02-21 07:57:42 51°16.184 2°54.383 89.3 0.4 188 9.6
2011-02-21 07:57:47 51°16.184 2°54.383 87.6 0.4 185 9.7
2011-02-21 07:57:52 51°16.183 2°54.382 85.8 0.4 187 9.7
2011-02-21 07:57:57 51°16.182 2°54.382 84.7 0.4 206 9.7
2011-02-21 07:58:02 51°16.182 2°54.381 83.4 0.3 233 9.5
2011-02-21 07:58:07 51°16.182 2°54.381 81.8 0.4 219 9.6
2011-02-21 07:58:12 51°16.181 2°54.38 80 0.4 224 9.7
2011-02-21 07:58:17 51°16.181 2°54.38 78.7 0.3 251 9.5
2011-02-21 07:58:22 51°16.182 2°54.379 77.2 0.3 273 9.4
2011-02-21 07:58:27 51°16.181 2°54.378 75 0.4 238 9.6
2011-02-21 07:58:32 51°16.181 2°54.377 73.3 0.4 256 9.8
2011-02-21 07:58:37 51°16.181 2°54.376 71.9 0.4 266 9.7
2011-02-21 07:58:42 51°16.181 2°54.375 70.5 0.4 260 9.8
2011-02-21 07:58:47 51°16.181 2°54.374 68.9 0.5 272 9.7
2011-02-21 07:58:52 51°16.181 2°54.373 67.9 0.6 280 9.4
2011-02-21 07:58:57 51°16.181 2°54.372 66.8 0.5 261 9.4
2011-02-21 07:59:02 51°16.181 2°54.371 65.8 0.5 259 9.7
2011-02-21 07:59:07 51°16.18 2°54.369 64.5 0.6 273 9.6
2011-02-21 07:59:12 51°16.181 2°54.368 63.7 0.5 277 9.6
2011-02-21 07:59:17 51°16.181 2°54.367 62.8 0.6 284 9.3
2011-02-21 07:59:22 51°16.181 2°54.366 61.8 0.7 282 9.4
2011-02-21 07:59:27 51°16.181 2°54.365 60.7 0.5 260 9.8
2011-02-21 07:59:31 51°16.181 2°54.363 59.5 0.7 282 9.6
2011-02-21 07:59:37 51°16.181 2°54.362 58.4 0.7 276 9.5
2011-02-21 07:59:42 51°16.182 2°54.36 57.6 0.7 281 9.5
2011-02-21 07:59:47 51°16.182 2°54.359 56.7 0.7 281 9.6
2011-02-21 07:59:52 51°16.182 2°54.357 55.7 0.8 279 9.5
2011-02-21 07:59:57 51°16.182 2°54.355 54.8 0.8 283 9.5
2011-02-21 08:00:02 51°16.182 2°54.353 54.2 0.8 278 9.6
2011-02-21 08:00:07 51°16.182 2°54.352 53.7 0.8 277 9.5
2011-02-21 08:00:11 51°16.183 2°54.351 53.1 0.7 276 9.7
2011-02-21 08:00:17 51°16.183 2°54.349 52.3 0.7 283 9.7
2011-02-21 08:00:22 51°16.183 2°54.347 51.7 0.7 278 9.6
2011-02-21 08:00:27 51°16.183 2°54.345 51.6 0.8 281 9.6
2011-02-21 08:00:32 51°16.184 2°54.344 51.3 0.8 279 9.4
2011-02-21 08:00:36 51°16.184 2°54.342 50.9 0.9 283 9.4
2011-02-21 08:00:42 51°16.184 2°54.34 50.1 0.8 270 9.6
2011-02-21 08:00:47 51°16.184 2°54.338 49.5 0.9 284 9.5
2011-02-21 08:00:52 51°16.185 2°54.336 49.1 0.8 280 9.5
2011-02-21 08:00:57 51°16.184 2°54.334 48.4 1 280 9.6
2011-02-21 08:01:02 51°16.185 2°54.332 48 0.8 274 9.6
2011-02-21 08:01:07 51°16.185 2°54.33 47.8 0.9 279 9.7
2011-02-21 08:01:12 51°16.185 2°54.328 47.5 0.9 279 9.6
2011-02-21 08:01:17 51°16.185 2°54.326 47.3 0.9 278 9.4
2011-02-21 08:01:22 51°16.185 2°54.324 47.2 0.8 278 9.4
2011-02-21 08:01:27 51°16.186 2°54.322 46.8 0.9 278 9.6
2011-02-21 08:01:31 51°16.186 2°54.32 46.5 0.9 278 9.5
2011-02-21 08:01:37 51°16.186 2°54.318 46.5 0.9 280 9.5
2011-02-21 08:01:42 51°16.186 2°54.316 46.1 0.9 277 9.6
2011-02-21 08:01:47 51°16.187 2°54.314 46.1 1 284 9.6
2011-02-21 08:01:52 51°16.187 2°54.312 45.9 1 282 9.6
2011-02-21 08:01:57 51°16.187 2°54.309 45.7 1 281 9.4
2011-02-21 08:02:02 51°16.187 2°54.308 45.7 0.9 277 9.6
2011-02-21 08:02:07 51°16.187 2°54.305 45.3 1 283 9.6
2011-02-21 08:02:11 51°16.187 2°54.304 44.8 0.9 275 9.6
2011-02-21 08:02:17 51°16.188 2°54.301 44.6 0.9 273 9.7
2011-02-21 08:02:22 51°16.188 2°54.299 44.4 1 278 9.7
2011-02-21 08:02:27 51°16.188 2°54.297 44.3 1 277 9.4
2011-02-21 08:02:32 51°16.188 2°54.294 44.4 1 274 9.7
2011-02-21 08:02:37 51°16.188 2°54.292 43.9 1.1 279 9.7
2011-02-21 08:02:42 51°16.188 2°54.29 43.6 1.1 281 9.5
2011-02-21 08:02:47 51°16.189 2°54.288 44 0.8 275 9.4
2011-02-21 08:02:52 51°16.189 2°54.286 43.8 1 281 9.5
2011-02-21 08:02:57 51°16.189 2°54.284 43.3 0.9 274 9.5
2011-02-21 08:03:02 51°16.189 2°54.282 43.3 1 278 9.4
2011-02-21 08:03:07 51°16.189 2°54.28 43.5 0.9 282 9.5
2011-02-21 08:03:11 51°16.19 2°54.278 43.2 1 286 9.6
2011-02-21 08:03:17 51°16.19 2°54.276 43.1 0.9 279 9.5
2011-02-21 08:03:22 51°16.19 2°54.273 43.3 1 284 9.5
2011-02-21 08:03:27 51°16.19 2°54.272 43.3 0.9 282 9.6
2011-02-21 08:03:32 51°16.19 2°54.27 43.1 0.9 276 9.7
2011-02-21 08:03:37 51°16.191 2°54.267 43.5 1 278 9.7
2011-02-21 08:03:42 51°16.191 2°54.265 43.5 1 279 9.6
2011-02-21 08:03:47 51°16.191 2°54.264 43.4 0.9 275 9.6
2011-02-21 08:03:52 51°16.191 2°54.262 43.6 0.9 277 9.7
2011-02-21 08:03:57 51°16.191 2°54.26 43.4 0.9 280 9.5
2011-02-21 08:04:02 51°16.191 2°54.258 43.3 0.9 276 9.5
2011-02-21 08:04:07 51°16.192 2°54.256 43.2 0.9 281 9.5
2011-02-21 08:04:11 51°16.192 2°54.255 43 0.8 279 9.6
2011-02-21 08:04:17 51°16.192 2°54.252 42.7 1 282 9.4
2011-02-21 08:04:22 51°16.192 2°54.25 42.5 0.8 269 9.6
2011-02-21 08:04:27 51°16.192 2°54.248 42.5 1 281 9.6
2011-02-21 08:04:32 51°16.193 2°54.246 42.4 0.9 276 9.4
2011-02-21 08:04:37 51°16.193 2°54.244 42.4 0.9 278 9.6
2011-02-21 08:04:42 51°16.193 2°54.242 42.5 1 281 9.6
2011-02-21 08:04:47 51°16.193 2°54.24 42.4 0.9 280 9.5
2011-02-21 08:04:52 51°16.194 2°54.238 42.6 1 284 9.5
2011-02-21 08:04:57 51°16.194 2°54.236 42.4 0.9 282 9.4
2011-02-21 08:05:02 51°16.194 2°54.234 42.4 0.9 276 9.6
2011-02-21 08:05:07 51°16.194 2°54.232 42.2 1 280 9.7
2011-02-21 08:05:12 51°16.195 2°54.23 42.1 0.9 284 9.5
2011-02-21 08:05:16 51°16.195 2°54.229 42.3 0.8 278 9.4
2011-02-21 08:05:22 51°16.195 2°54.227 42.3 0.8 283 9.5
2011-02-21 08:05:27 51°16.195 2°54.224 42.3 0.9 284 9.6
2011-02-21 08:05:32 51°16.195 2°54.222 42.3 0.9 274 9.6
2011-02-21 08:05:37 51°16.195 2°54.221 42.5 1 278 9.5
2011-02-21 08:05:42 51°16.196 2°54.219 42.5 0.9 274 9.6
2011-02-21 08:05:47 51°16.196 2°54.217 42.6 0.9 276 9.7
2011-02-21 08:05:52 51°16.196 2°54.215 42.6 0.9 280 9.7
2011-02-21 08:05:57 51°16.196 2°54.213 42.9 0.8 278 9.5
2011-02-21 08:06:02 51°16.196 2°54.211 43 0.9 274 9.5
2011-02-21 08:06:07 51°16.197 2°54.209 42.8 0.9 281 9.5
2011-02-21 08:06:12 51°16.197 2°54.207 42.7 0.8 281 9.5
2011-02-21 08:06:17 51°16.197 2°54.206 42.9 0.8 273 9.9
2011-02-21 08:06:22 51°16.197 2°54.204 42.3 0.8 277 9.8
2011-02-21 08:06:27 51°16.197 2°54.201 42.4 0.9 275 9.7
2011-02-21 08:06:32 51°16.197 2°54.2 42.5 0.9 274 9.7
2011-02-21 08:06:37 51°16.198 2°54.198 42.1 1 278 9.6
2011-02-21 08:06:42 51°16.198 2°54.196 41.8 0.9 277 9.5
2011-02-21 08:06:47 51°16.198 2°54.194 41.8 0.9 275 9.6
2011-02-21 08:06:51 51°16.198 2°54.192 41.6 1 280 9.7
2011-02-21 08:06:57 51°16.198 2°54.189 41.3 1 278 9.5
2011-02-21 08:07:02 51°16.198 2°54.187 41.2 1 272 9.5
2011-02-21 08:07:07 51°16.198 2°54.185 40.9 1 274 9.5
2011-02-21 08:07:12 51°16.199 2°54.183 40.4 1 275 9.6
2011-02-21 08:07:17 51°16.199 2°54.181 40 1 281 9.5
2011-02-21 08:07:22 51°16.199 2°54.179 39.8 0.9 279 9.6
2011-02-21 08:07:27 51°16.199 2°54.177 39.6 1 282 9.6
2011-02-21 08:07:32 51°16.2 2°54.174 39.3 1.1 279 9.6
2011-02-21 08:07:37 51°16.2 2°54.172 39.1 1 277 9.6
2011-02-21 08:07:42 51°16.2 2°54.171 38.9 1 279 9.7
2011-02-21 08:07:47 51°16.2 2°54.168 38.6 1 276 9.7
2011-02-21 08:07:52 51°16.2 2°54.166 38.6 1 276 9.8
2011-02-21 08:07:57 51°16.2 2°54.164 38.6 1 274 9.8
2011-02-21 08:08:02 51°16.2 2°54.162 38.9 1 275 9.7
2011-02-21 08:08:07 51°16.201 2°54.16 38.8 1 276 9.6
2011-02-21 08:08:12 51°16.201 2°54.158 38.6 1 277 9.6
2011-02-21 08:08:17 51°16.201 2°54.156 38.6 1 281 9.7
2011-02-21 08:08:22 51°16.201 2°54.154 38.4 1 279 9.5
2011-02-21 08:08:27 51°16.201 2°54.152 38.5 0.9 274 9.6
2011-02-21 08:08:31 51°16.202 2°54.15 38.5 1.1 280 9.5
2011-02-21 08:08:37 51°16.202 2°54.147 38.3 0.9 275 9.5
2011-02-21 08:08:42 51°16.202 2°54.145 38.3 0.9 275 9.7
2011-02-21 08:08:47 51°16.203 2°54.143 38.3 1 281 9.7
2011-02-21 08:08:52 51°16.203 2°54.141 38.2 1 279 9.7
2011-02-21 08:08:57 51°16.203 2°54.138 38 1 284 9.6
2011-02-21 08:09:02 51°16.203 2°54.136 37.9 1 284 9.4
2011-02-21 08:09:07 51°16.204 2°54.134 37.9 1 283 9.5
2011-02-21 08:09:11 51°16.204 2°54.132 37.6 1 279 9.7
2011-02-21 08:09:17 51°16.204 2°54.129 37.7 1.1 277 9.5
2011-02-21 08:09:22 51°16.204 2°54.127 37.5 1.1 282 9.5
2011-02-21 08:09:27 51°16.205 2°54.125 37.5 1 282 9.5
2011-02-21 08:09:32 51°16.205 2°54.123 37.3 0.9 278 9.8
2011-02-21 08:09:36 51°16.205 2°54.121 37.1 1.1 281 9.7
2011-02-21 08:09:42 51°16.205 2°54.118 37.1 1.1 281 9.5
2011-02-21 08:09:47 51°16.206 2°54.117 37.1 0.9 281 9.6
2011-02-21 08:09:52 51°16.206 2°54.114 37.2 1 283 9.7
2011-02-21 08:09:57 51°16.206 2°54.112 36.9 0.9 280 9.6
2011-02-21 08:10:02 51°16.206 2°54.11 37.1 1 279 9.4
2011-02-21 08:10:07 51°16.207 2°54.108 37.5 0.9 282 9.5
2011-02-21 08:10:11 51°16.207 2°54.106 37.7 0.8 281 9.6
2011-02-21 08:10:17 51°16.207 2°54.103 37.8 1 283 9.5
2011-02-21 08:10:22 51°16.207 2°54.101 38.1 0.9 276 9.6
2011-02-21 08:10:27 51°16.208 2°54.099 38.3 1 279 9.7
2011-02-21 08:10:32 51°16.208 2°54.097 38.5 1.1 280 9.7
2011-02-21 08:10:37 51°16.208 2°54.095 39 1 281 9.5
2011-02-21 08:10:42 51°16.208 2°54.093 39.1 1 279 9.6
2011-02-21 08:10:47 51°16.209 2°54.091 39 1 280 9.7
2011-02-21 08:10:52 51°16.209 2°54.089 39 0.9 279 9.6
2011-02-21 08:10:57 51°16.209 2°54.087 39.1 1.1 282 9.4
2011-02-21 08:11:02 51°16.209 2°54.085 39.1 1 278 9.4
2011-02-21 08:11:07 51°16.209 2°54.083 39.1 0.9 280 9.5
2011-02-21 08:11:11 51°16.209 2°54.081 39.3 0.9 278 9.4
2011-02-21 08:11:17 51°16.209 2°54.078 39.3 1 276 9.5
2011-02-21 08:11:22 51°16.209 2°54.076 39.5 1 276 9.6
2011-02-21 08:11:27 51°16.21 2°54.074 39.5 1 280 9.7
2011-02-21 08:11:32 51°16.21 2°54.072 39.5 1 279 9.7
2011-02-21 08:11:37 51°16.21 2°54.07 39.8 1 279 9.6
2011-02-21 08:11:42 51°16.21 2°54.068 39.9 0.9 276 9.8
2011-02-21 08:11:47 51°16.211 2°54.066 39.9 1 278 9.7
2011-02-21 08:11:52 51°16.211 2°54.063 39.9 1.1 278 9.7
2011-02-21 08:11:57 51°16.211 2°54.061 40 1 279 9.5
2011-02-21 08:12:02 51°16.211 2°54.059 40 1 278 9.5
2011-02-21 08:12:07 51°16.212 2°54.057 39.9 1 282 9.7
2011-02-21 08:12:12 51°16.212 2°54.054 39.7 1 276 9.8
2011-02-21 08:12:17 51°16.212 2°54.052 39.7 1 281 9.7
2011-02-21 08:12:22 51°16.212 2°54.051 39.6 0.9 275 9.7
2011-02-21 08:12:27 51°16.212 2°54.048 39.7 1 279 9.8
2011-02-21 08:12:32 51°16.212 2°54.046 39.7 1 272 9.9
2011-02-21 08:12:37 51°16.212 2°54.044 39.8 0.9 271 9.7
2011-02-21 08:12:42 51°16.212 2°54.042 40 1 279 9.7
2011-02-21 08:12:47 51°16.212 2°54.04 40 0.9 277 9.7
2011-02-21 08:12:52 51°16.213 2°54.038 40 1 281 9.6
2011-02-21 08:12:57 51°16.213 2°54.036 39.9 1 279 9.3
2011-02-21 08:13:02 51°16.213 2°54.034 40 1 274 9.4
2011-02-21 08:13:07 51°16.213 2°54.031 40 0.9 273 9.6
2011-02-21 08:13:12 51°16.213 2°54.029 40 1.1 278 9.7
2011-02-21 08:13:17 51°16.213 2°54.027 40 1 276 9.7
2011-02-21 08:13:22 51°16.214 2°54.025 40.1 1 277 9.6
2011-02-21 08:13:27 51°16.214 2°54.023 40.2 1 279 9.6
2011-02-21 08:13:32 51°16.214 2°54.021 40.2 0.9 273 9.6
2011-02-21 08:13:37 51°16.214 2°54.019 40.2 0.9 274 9.8
2011-02-21 08:13:42 51°16.214 2°54.017 40.3 0.9 273 9.8
2011-02-21 08:13:47 51°16.215 2°54.014 40.4 1 278 9.9
2011-02-21 08:13:52 51°16.215 2°54.012 40.5 1.1 279 9.6
2011-02-21 08:13:57 51°16.215 2°54.01 40.7 1 278 9.4
2011-02-21 08:14:02 51°16.215 2°54.008 40.7 0.9 276 9.6
2011-02-21 08:14:07 51°16.215 2°54.006 40.4 1 277 9.5
2011-02-21 08:14:12 51°16.216 2°54.004 40.4 0.9 277 9.7
2011-02-21 08:14:16 51°16.216 2°54.002 40.3 0.9 288 9.9
2011-02-21 08:14:22 51°16.217 2°54 40.4 0.9 301 9.7
2011-02-21 08:14:27 51°16.218 2°53.999 41 0.8 307 9.6
2011-02-21 08:14:31 51°16.218 2°53.998 41.8 0.8 325 9.6
2011-02-21 08:14:37 51°16.219 2°53.997 42.9 0.7 335 9.7
2011-02-21 08:14:42 51°16.22 2°53.997 44.1 0.7 349 9.8
2011-02-21 08:14:47 51°16.222 2°53.997 45.6 1 346 9.6
2011-02-21 08:14:52 51°16.223 2°53.997 47.4 0.9 6 9.5
2011-02-21 08:14:57 51°16.224 2°53.997 49.2 1 11 9.7
2011-02-21 08:15:02 51°16.226 2°53.998 50.8 1 20 9.8
2011-02-21 08:15:07 51°16.227 2°53.999 52.6 1.1 17 9.7
2011-02-21 08:15:11 51°16.228 2°54 54.8 1 26 9.6
2011-02-21 08:15:17 51°16.229 2°54.001 56.2 0.9 36 9.9
2011-02-21 08:15:22 51°16.23 2°54.002 57.5 1 32 9.8
2011-02-21 08:15:27 51°16.231 2°54.003 58.2 0.9 31 9.7
2011-02-21 08:15:32 51°16.232 2°54.004 59 0.8 36 9.7
2011-02-21 08:15:37 51°16.233 2°54.005 59.6 0.8 28 9.7
2011-02-21 08:15:42 51°16.234 2°54.006 59.8 0.6 26 9.6
2011-02-21 08:15:47 51°16.235 2°54.006 59.8 0.6 23 9.5
2011-02-21 08:15:52 51°16.235 2°54.007 60.1 0.5 14 9.7
2011-02-21 08:15:57 51°16.236 2°54.006 60.4 0.5 352 9.7
2011-02-21 08:16:02 51°16.236 2°54.006 60.1 0.4 326 9.7
2011-02-21 08:16:07 51°16.237 2°54.005 59.6 0.5 307 9.6
2011-02-21 08:16:11 51°16.237 2°54.004 58.9 0.4 291 9.4
2011-02-21 08:16:17 51°16.237 2°54.003 58.1 0.6 285 9.5
2011-02-21 08:16:22 51°16.237 2°54.001 57.2 0.8 270 9.7
2011-02-21 08:16:27 51°16.237 2°53.999 56.4 0.9 266 9.7
2011-02-21 08:16:32 51°16.237 2°53.997 55.9 1 266 9.7
2011-02-21 08:16:37 51°16.237 2°53.994 55.3 1.2 266 9.6
2011-02-21 08:16:42 51°16.236 2°53.991 54.8 1.2 261 9.6
2011-02-21 08:16:47 51°16.236 2°53.988 54.4 1.2 263 9.6
2011-02-21 08:16:52 51°16.236 2°53.986 54.3 1.1 262 9.6
2011-02-21 08:16:57 51°16.236 2°53.983 53.6 1.1 269 9.5
2011-02-21 08:17:02 51°16.236 2°53.981 52.5 1.2 267 9.5
2011-02-21 08:17:07 51°16.235 2°53.978 51.7 1.1 262 9.7
2011-02-21 08:17:11 51°16.235 2°53.976 50.6 1.2 260 9.8
2011-02-21 08:17:17 51°16.235 2°53.973 49.9 1.2 260 9.8
2011-02-21 08:17:22 51°16.235 2°53.97 48.9 1.1 263 9.8
2011-02-21 08:17:27 51°16.235 2°53.968 47.8 1.3 268 9.6
2011-02-21 08:17:32 51°16.235 2°53.965 47.1 1.2 265 9.5
2011-02-21 08:17:37 51°16.234 2°53.962 46 1.2 266 9.6
2011-02-21 08:17:42 51°16.234 2°53.96 45 1.3 268 9.5
2011-02-21 08:17:47 51°16.234 2°53.957 44.1 1.2 265 9.5
2011-02-21 08:17:51 51°16.234 2°53.955 43.1 1.3 264 9.7
2011-02-21 08:17:57 51°16.234 2°53.951 42.2 1.2 265 9.6
2011-02-21 08:18:02 51°16.234 2°53.948 41.3 1.3 272 9.6
2011-02-21 08:18:07 51°16.233 2°53.946 40.3 1.2 270 9.6
2011-02-21 08:18:12 51°16.233 2°53.943 39.3 1.2 273 9.6
2011-02-21 08:18:17 51°16.234 2°53.94 38.3 1.3 272 9.6
2011-02-21 08:18:22 51°16.234 2°53.937 37.1 1.1 278 9.5
2011-02-21 08:18:27 51°16.234 2°53.935 35.5 1.1 283 9.6
2011-02-21 08:18:32 51°16.235 2°53.933 34.2 0.9 294 9.8
2011-02-21 08:18:37 51°16.236 2°53.931 32.9 1 297 10
2011-02-21 08:18:42 51°16.236 2°53.929 32.2 1.1 292 9.8
2011-02-21 08:18:47 51°16.237 2°53.927 32.5 0.9 301 9.7
2011-02-21 08:18:52 51°16.237 2°53.925 32.7 1.1 302 9.7
2011-02-21 08:18:57 51°16.238 2°53.923 32.7 1 304 9.5
2011-02-21 08:19:02 51°16.239 2°53.922 33.1 0.9 314 9.6
2011-02-21 08:19:07 51°16.24 2°53.92 33.3 1 312 9.6
2011-02-21 08:19:12 51°16.242 2°53.919 33.5 1 321 9.6
2011-02-21 08:19:17 51°16.243 2°53.918 33.9 1.1 327 9.6
2011-02-21 08:19:22 51°16.244 2°53.917 34.2 1 335 9.6
2011-02-21 08:19:27 51°16.246 2°53.916 34.2 1.1 336 9.7
2011-02-21 08:19:32 51°16.247 2°53.915 34.4 1.1 341 9.7
2011-02-21 08:19:37 51°16.248 2°53.914 34.8 1.1 338 9.7
2011-02-21 08:19:42 51°16.25 2°53.914 34.9 1.2 349 10
2011-02-21 08:19:47 51°16.252 2°53.913 34.6 1.4 347 9.8
2011-02-21 08:19:52 51°16.254 2°53.912 34.7 1.2 351 9.7
2011-02-21 08:19:57 51°16.255 2°53.912 34.7 1.3 349 9.7
2011-02-21 08:20:02 51°16.257 2°53.911 34.7 1.3 350 9.6
2011-02-21 08:20:07 51°16.259 2°53.91 34.7 1.2 348 9.6
2011-02-21 08:20:12 51°16.261 2°53.911 34.7 1.2 353 9.8
2011-02-21 08:20:17 51°16.263 2°53.91 34.5 1.5 356 9.8
2011-02-21 08:20:22 51°16.265 2°53.91 34.2 1.5 357 9.8
2011-02-21 08:20:27 51°16.267 2°53.911 34.7 1.5 1 9.7
2011-02-21 08:20:31 51°16.269 2°53.911 34.4 1.7 1 9.8
2011-02-21 08:20:37 51°16.272 2°53.91 33.4 1.7 357 9.8
2011-02-21 08:20:42 51°16.275 2°53.91 31.6 1.8 358 9.9
2011-02-21 08:20:47 51°16.277 2°53.91 29.1 1.9 356 9.9
2011-02-21 08:20:52 51°16.281 2°53.91 26.2 2.2 355 9.8
2011-02-21 08:20:56 51°16.283 2°53.909 22.8 2.4 353 9.8
2011-02-21 08:21:02 51°16.288 2°53.908 19.1 2.7 349 9.7
2011-02-21 08:21:07 51°16.292 2°53.907 14.6 3 348 9.9
2011-02-21 08:21:11 51°16.295 2°53.905 10 3.3 342 9.7
2011-02-21 08:21:17 51°16.3 2°53.901 5 3.4 338 9.7
2011-02-21 08:21:22 51°16.305 2°53.898 -999 3.7 333 9.7
2011-02-21 08:21:27 51°16.31 2°53.894 355 3.9 331 9.9
2011-02-21 08:21:32 51°16.315 2°53.888 349.8 4.2 326 10
2011-02-21 08:21:37 51°16.32 2°53.882 344.3 4.4 321 10
2011-02-21 08:21:42 51°16.325 2°53.875 338.9 4.8 317 9.7
2011-02-21 08:21:47 51°16.329 2°53.866 333.5 5.1 314 9.7
2011-02-21 08:21:52 51°16.335 2°53.857 329.1 5.5 313 9.9
2011-02-21 08:21:57 51°16.34 2°53.846 326.2 6.2 311 9.9
2011-02-21 08:22:01 51°16.345 2°53.837 324.5 7 310 9.9
2011-02-21 08:22:07 51°16.354 2°53.822 323.4 7.5 311 9.9
2011-02-21 08:22:11 51°16.36 2°53.811 322.7 8.2 311 9.9
2011-02-21 08:22:17 51°16.37 2°53.793 321.9 8.8 311 10
2011-02-21 08:22:22 51°16.379 2°53.778 321.4 9.5 312 10.1
2011-02-21 08:22:27 51°16.388 2°53.761 320.9 9.9 311 9.9
2011-02-21 08:22:32 51°16.397 2°53.744 320.5 10.3 311 10.5
2011-02-21 08:22:37 51°16.407 2°53.726 320.2 10.8 311 9.9
2011-02-21 08:22:42 51°16.418 2°53.707 319.7 11.2 311 9.7
2011-02-21 08:22:47 51°16.428 2°53.688 319.3 11.6 311 9.9
2011-02-21 08:22:52 51°16.439 2°53.668 319 11.9 311 9.6
2011-02-21 08:22:57 51°16.45 2°53.647 318.7 12.2 311 9.9
2011-02-21 08:23:02 51°16.461 2°53.626 318.4 12.5 311 9.9
2011-02-21 08:23:07 51°16.473 2°53.605 318.4 12.7 311 9.7
2011-02-21 08:23:12 51°16.485 2°53.584 318.7 12.8 311 9.8
2011-02-21 08:23:17 51°16.497 2°53.562 318.7 13 312 9.9
2011-02-21 08:23:22 51°16.509 2°53.541 319.4 13.1 313 9.8
2011-02-21 08:23:27 51°16.521 2°53.52 319.9 13.2 313 9.8
2011-02-21 08:23:32 51°16.534 2°53.498 320.3 13.2 312 9.9
2011-02-21 08:23:37 51°16.546 2°53.477 320.5 13.2 313 9.7
2011-02-21 08:23:42 51°16.559 2°53.455 320.6 13.3 312 10
2011-02-21 08:23:47 51°16.572 2°53.433 320.4 13.4 313 10.2
2011-02-21 08:23:52 51°16.584 2°53.412 320.2 13.3 313 9.5
2011-02-21 08:23:57 51°16.597 2°53.39 320.2 13.4 313 9.7
2011-02-21 08:24:02 51°16.61 2°53.369 320.4 13.4 314 9.9
2011-02-21 08:24:07 51°16.622 2°53.347 320.4 13.4 314 9.9
2011-02-21 08:24:12 51°16.635 2°53.326 320.8 13.4 314 9.7
2011-02-21 08:24:17 51°16.648 2°53.304 320.9 13.3 314 9.4
2011-02-21 08:24:22 51°16.661 2°53.283 320.8 13.4 314 9.7
2011-02-21 08:24:27 51°16.674 2°53.262 320.5 13.3 314 9.7
2011-02-21 08:24:32 51°16.687 2°53.241 320.8 13.3 315 9.7
2011-02-21 08:24:37 51°16.7 2°53.22 320.5 13.3 316 9.5
2011-02-21 08:24:42 51°16.713 2°53.2 321.4 13.3 316 9.6
2011-02-21 08:24:47 51°16.727 2°53.18 322.2 13.3 317 9.6
2011-02-21 08:24:52 51°16.74 2°53.16 323.5 13.3 319 9.3
2011-02-21 08:24:57 51°16.754 2°53.142 324.5 13.2 320 9.2
2011-02-21 08:25:02 51°16.768 2°53.123 325.4 13.1 320 9.1
2011-02-21 08:25:07 51°16.782 2°53.105 326 13 320 9.3
2011-02-21 08:25:11 51°16.794 2°53.09 326.6 13.1 321 9
2011-02-21 08:25:17 51°16.811 2°53.069 326.5 13.1 321 8.5
2011-02-21 08:25:22 51°16.824 2°53.05 326.3 12.8 320 5.8
2011-02-21 08:25:27 51°16.838 2°53.032 325.9 12.7 320 7.3
2011-02-21 08:25:32 51°16.85 2°53.014 325.2 12.5 319 6.8
2011-02-21 08:25:37 51°16.863 2°52.996 324.5 12 317 6.7
2011-02-21 08:25:42 51°16.875 2°52.978 322.8 11.9 315 6.9
2011-02-21 08:25:47 51°16.886 2°52.958 320.4 11.9 313 6.9
2011-02-21 08:25:52 51°16.897 2°52.939 318.3 11.8 312 6.9
2011-02-21 08:25:57 51°16.908 2°52.919 317.5 11.9 312 7.1
2011-02-21 08:26:02 51°16.918 2°52.899 317.2 12 311 7
2011-02-21 08:26:07 51°16.929 2°52.878 316.5 12.1 311 7.3
2011-02-21 08:26:12 51°16.941 2°52.859 316.6 12.2 312 7.1
2011-02-21 08:26:17 51°16.953 2°52.839 318 12.3 314 7.3
2011-02-21 08:26:22 51°16.965 2°52.82 319.7 12.5 317 7.6
2011-02-21 08:26:27 51°16.978 2°52.802 321.6 12.6 319 7.6
2011-02-21 08:26:32 51°16.992 2°52.785 324.9 12.5 323 7.7
2011-02-21 08:26:37 51°17.007 2°52.771 328.9 12.4 327 7.6